PILOTS ONLINE: 324    ATC ONLINE: 54

KSKA

Fairchild Air Force Base

Location

IATA SKA
City Spokane
Country  United States
Latitude 47° 36' 54" N
Longitude 117° 39' 21" W
Elevation 2461 ft
Type Large Airport

Map

Weather

METAR
2014/10/22 22:58
KSKA 222258Z AUTO 21002KT 9SM -RA BKN048 OVC060 12/09 A2984 RMK AO2 SLP112 P0002 T01150093
TAF
2014/10/22 22:24
TAF 
      AMD KSKA 2222/2401 18009KT 9000 -SHRA BKN040 610703 QNH2985INS 
      TEMPO 2300/2305 1812G18KT 
      BECMG 2306/2307 17015G25KT 9000 -RA BKN030 620604 520009 QNH2983INS 
      BECMG 2318/2319 20015G25KT 8000 -SHRA BKN050 610604 520009 QNH2984INS TX17/2323Z TN09/2313Z 
      AMD 222211

Runways

05/23 13901 ft / 200 ft

Outbound flights

Callsign Flying to Pilot ATD/STD ETA Aircraft

Inbound flights

Callsign Flying from Pilot ATD ETA Aircraft